| Date | Time | Temp. (oF) | Dew Point (oF) | Rel. Hum. (%) | Press. (in.) | Wind Dir. | Wind Speed (mph) | Hourly Rainfall (in.) |
|
|---|---|---|---|---|---|---|---|---|---|
| 1 | 05/21 | 00:00 | 56 | 41 | 58 | 30.32 | SW | 1 | 0.00 |
| 2 | 05/20 | 23:00 | 61 | 38 | 43 | 30.31 | WSW | 0 | 0.00 |
| 3 | 05/20 | 22:00 | 63 | 34 | 35 | 30.32 | S | 0 | 0.00 |
| 4 | 05/20 | 21:00 | 66 | 34 | 31 | 30.31 | S | 4 | 0.00 |
| 5 | 05/20 | 20:00 | 71 | 37 | 30 | 30.30 | SSW | 7 | 0.00 |
| 6 | 05/20 | 19:00 | 75 | 42 | 32 | 30.30 | SSW | 7 | 0.00 |
| 7 | 05/20 | 18:00 | 77 | 48 | 37 | 30.30 | SSW | 4 | 0.00 |
| 8 | 05/20 | 17:00 | 80 | 48 | 34 | 30.31 | SW | 5 | 0.00 |
| 9 | 05/20 | 16:00 | 80 | 45 | 30 | 30.33 | S | 6 | 0.00 |
| 10 | 05/20 | 15:00 | 80 | 47 | 32 | 30.35 | SSW | 5 | 0.00 |
| 11 | 05/20 | 14:00 | 78 | 41 | 28 | 30.37 | NNW | 1 | 0.00 |
| 12 | 05/20 | 13:00 | 77 | 47 | 36 | 30.39 | SSW | 3 | 0.00 |
| 13 | 05/20 | 12:00 | 74 | 48 | 41 | 30.41 | SSW | 6 | 0.00 |
| 14 | 05/20 | 11:00 | 69 | 46 | 45 | 30.43 | SW | 5 | 0.00 |
| 15 | 05/20 | 10:00 | 65 | 47 | 53 | 30.43 | NW | 4 | 0.00 |
| 16 | 05/20 | 09:00 | 60 | 47 | 63 | 30.43 | SW | 3 | 0.00 |
| 17 | 05/20 | 08:00 | 53 | 48 | 84 | 30.42 | SSW | 0 | 0.00 |
| 18 | 05/20 | 07:00 | 46 | 44 | 94 | 30.42 | SSW | 0 | 0.00 |
| 19 | 05/20 | 06:00 | 44 | 41 | 92 | 30.41 | SSW | 0 | 0.00 |
| 20 | 05/20 | 05:00 | 45 | 41 | 88 | 30.39 | WSW | 0 | 0.00 |
| 21 | 05/20 | 04:00 | 46 | 40 | 82 | 30.40 | W | 0 | 0.00 |
| 22 | 05/20 | 03:00 | 48 | 41 | 77 | 30.41 | W | 0 | 0.00 |
| 23 | 05/20 | 02:00 | 52 | 40 | 66 | 30.42 | W | 0 | 0.00 |
| 24 | 05/20 | 01:00 | 53 | 40 | 63 | 30.41 | WSW | 0 | 0.00 |